Time;durP1;ratioP1;P1;durP2;ratioP2;P2;SDS_P1;SDS_P2;PMS_P1;PMS_P2;Temp;Humidity;BMP_temperature;BMP_pressure;BME280_temperature;BME280_humidity;BME280_pressure;Samples;Min_cycle;Max_cycle;Signal;HPM_P1;HPM_P2
2021/04/20 00:00:14;;;;;;;25.30;21.07;;;6.50;72.70;8.30;100721.00;;;;4920520;29;20470;-81
2021/04/20 00:02:41;;;;;;;30.30;22.30;;;6.50;73.00;217.30;160234.00;;;;4928622;29;20541;-79
2021/04/20 00:05:14;;;;;;;29.73;24.75;;;6.40;73.00;8.40;100718.00;;;;4927037;29;20441;-82
2021/04/20 00:07:42;;;;;;;27.63;20.33;;;6.40;72.90;217.30;160224.00;;;;4922813;29;20202;-80
2021/04/20 00:10:14;;;;;;;27.65;23.02;;;6.50;72.80;8.40;100708.00;;;;4927194;29;20437;-81
2021/04/20 00:12:42;;;;;;;25.40;20.17;;;6.60;72.70;217.30;160255.00;;;;4944236;29;20274;-79
2021/04/20 00:15:13;;;;;;;27.88;23.95;;;6.60;72.30;8.50;68140.00;;;;4922270;29;20460;-79
2021/04/20 00:17:41;;;;;;;25.23;21.50;;;6.70;72.40;217.30;160275.00;;;;4908041;29;20210;-82
2021/04/20 00:20:13;;;;;;;26.90;23.00;;;6.60;72.00;8.50;100716.00;;;;4934813;29;20483;-81
2021/04/20 00:22:40;;;;;;;22.53;17.63;;;6.70;72.10;217.30;160255.00;;;;4914231;29;20531;-81
2021/04/20 00:25:10;;;;;;;31.15;23.40;;;6.70;71.60;8.50;100701.00;;;;4911298;29;20472;-81
2021/04/20 00:27:37;;;;;;;23.77;19.13;;;6.70;71.50;217.30;160275.00;;;;4905918;29;20210;-80
2021/04/20 00:30:07;;;;;;;28.50;23.02;;;6.70;71.20;8.50;100704.00;;;;4904275;29;20492;-80
2021/04/20 00:32:36;;;;;;;28.77;20.10;;;6.70;71.20;8.30;68107.00;;;;4907436;29;20229;-81
2021/04/20 00:35:07;;;;;;;27.35;22.27;;;6.60;71.00;8.50;100712.00;;;;4921318;29;20547;-82
2021/04/20 00:37:34;;;;;;;25.50;20.53;;;6.60;70.60;8.30;100698.00;;;;4913946;29;20624;-80
2021/04/20 00:40:02;;;;;;;28.63;23.60;;;6.50;70.60;8.40;100708.00;;;;4907278;29;20425;-81
2021/04/20 00:42:29;;;;;;;28.53;20.87;;;6.50;70.70;217.30;160198.00;;;;4913470;29;20510;-81
2021/04/20 00:44:57;;;;;;;33.47;24.90;;;6.50;70.80;217.30;160265.00;;;;4913588;29;20468;-80
2021/04/20 00:47:24;;;;;;;28.13;23.23;;;6.50;70.70;8.40;68121.00;;;;4913172;29;20521;-80
2021/04/20 00:49:53;;;;;;;29.90;20.73;;;6.70;71.10;217.30;160212.00;;;;4914628;29;20489;-79
2021/04/20 00:52:20;;;;;;;29.85;22.80;;;6.70;71.00;217.30;160255.00;;;;4934457;29;20464;-80
2021/04/20 00:54:48;;;;;;;28.40;21.00;;;6.60;70.70;217.30;160166.00;;;;4917469;29;20230;-81
2021/04/20 00:57:15;;;;;;;30.98;23.92;;;6.50;70.70;52.70;160255.00;;;;4910583;29;20441;-80
2021/04/20 00:59:42;;;;;;;26.40;20.10;;;6.60;71.00;217.30;160133.00;;;;4921700;29;20230;-81
2021/04/20 01:02:10;;;;;;;26.48;21.98;;;6.40;70.90;217.30;160218.00;;;;4911631;29;20444;-82
2021/04/20 01:04:40;;;;;;;26.43;19.90;;;6.50;71.20;217.30;160160.00;;;;4912577;29;20317;-81
2021/04/20 01:07:10;;;;;;;29.52;24.80;;;6.50;71.20;8.20;100681.00;;;;4926679;29;20441;-81
2021/04/20 01:09:37;;;;;;;27.37;21.30;;;6.70;71.30;52.70;160109.00;;;;4911780;29;20206;-81
2021/04/20 01:12:08;;;;;;;27.83;23.35;;;6.30;69.90;8.10;100695.00;;;;4912053;29;20441;-79
2021/04/20 01:14:36;;;;;;;30.67;22.43;;;6.30;70.20;7.90;67994.00;;;;4913485;29;20301;-79
2021/04/20 01:17:04;;;;;;;30.60;25.67;;;6.10;70.10;7.90;100691.00;;;;4911160;29;21041;-81
2021/04/20 01:19:33;;;;;;;28.60;21.47;;;6.10;70.40;217.30;160027.00;;;;4912393;29;20202;-80
2021/04/20 01:22:02;;;;;;;31.17;24.48;;;6.00;71.00;8.00;100692.00;;;;4902169;29;20444;-81
2021/04/20 01:24:32;;;;;;;31.80;23.60;;;6.00;71.70;217.30;160027.00;;;;4926084;29;20229;-80
2021/04/20 01:27:00;;;;;;;34.20;25.90;;;6.00;71.90;7.90;100688.00;;;;4907879;29;20577;-81
2021/04/20 01:29:28;;;;;;;29.40;22.23;;;6.00;72.30;52.70;160023.00;;;;4910948;29;20218;-81
2021/04/20 01:31:55;;;;;;;27.50;23.77;;;6.00;72.50;7.90;100693.00;;;;4909783;29;20538;-80
2021/04/20 01:34:23;;;;;;;29.10;20.97;;;6.00;72.30;52.70;159976.00;;;;4923103;29;20513;-80
2021/04/20 01:36:51;;;;;;;31.30;24.30;;;5.80;71.60;7.80;100677.00;;;;4904046;29;20550;-79
2021/04/20 01:39:18;;;;;;;28.50;20.60;;;5.90;71.60;7.60;100690.00;;;;4921100;29;20241;-80
2021/04/20 01:41:47;;;;;;;29.40;23.60;;;5.90;71.50;7.70;100693.00;;;;4907265;29;20479;-79
2021/04/20 01:44:15;;;;;;;29.17;21.40;;;5.90;71.40;52.70;159925.00;;;;4919700;29;21000;-80
2021/04/20 01:46:43;;;;;;;29.73;23.70;;;5.80;71.30;7.70;67969.00;;;;4909069;29;20425;-82
2021/04/20 01:49:11;;;;;;;28.03;21.30;;;5.80;71.30;217.30;159909.00;;;;4910970;29;20211;-81
2021/04/20 01:51:39;;;;;;;28.13;23.30;;;5.70;71.10;7.70;67954.00;;;;4909395;29;20476;-80
2021/04/20 01:54:06;;;;;;;24.80;20.20;;;5.80;71.40;7.50;100675.00;;;;4901094;29;20238;-80
2021/04/20 01:56:34;;;;;;;28.85;23.75;;;5.70;71.00;7.60;67946.00;;;;4907047;29;20500;-79
2021/04/20 01:59:03;;;;;;;30.63;22.40;;;5.90;71.60;217.30;159887.00;;;;4910107;29;20230;-81
2021/04/20 02:01:31;;;;;;;30.45;25.20;;;5.70;71.80;217.30;159946.00;;;;4915485;29;20912;-81
2021/04/20 02:03:59;;;;;;;33.23;22.13;;;5.70;72.00;7.40;100688.00;;;;4923642;29;20203;-82
2021/04/20 02:06:27;;;;;;;33.30;25.42;;;5.80;72.30;7.50;100689.00;;;;4906596;29;20433;-80
2021/04/20 02:08:55;;;;;;;30.97;22.60;;;5.70;72.30;7.30;100689.00;;;;4904882;29;20274;-81
2021/04/20 02:11:24;;;;;;;31.58;25.60;;;5.60;71.50;7.50;100692.00;;;;4913984;29;20428;-79
2021/04/20 02:13:52;;;;;;;29.93;22.33;;;5.60;71.40;7.30;100689.00;;;;4937908;29;20202;-79
2021/04/20 02:16:22;;;;;;;29.05;24.80;;;5.50;71.30;7.50;100685.00;;;;4942119;29;20425;-80
2021/04/20 02:18:54;;;;;;;26.30;20.50;;;5.60;71.70;7.30;100699.00;;;;4907524;29;20206;-80
2021/04/20 02:21:22;;;;;;;30.65;25.05;;;5.50;71.90;7.50;100687.00;;;;4930595;29;20428;-80
2021/04/20 02:23:50;;;;;;;28.23;21.50;;;5.60;72.00;7.20;100674.00;;;;4919542;29;20203;-79
2021/04/20 02:26:24;;;;;;;31.30;25.92;;;5.50;71.60;7.40;100692.00;;;;4924688;29;20437;-79
2021/04/20 02:28:51;;;;;;;27.63;22.00;;;5.50;71.40;7.20;100683.00;;;;4949524;29;20198;-80
2021/04/20 02:31:19;;;;;;;32.50;25.20;;;5.40;71.60;7.30;100693.00;;;;4946972;29;20451;-79
2021/04/20 02:33:49;;;;;;;29.13;22.77;;;5.50;72.10;217.30;159782.00;;;;4938108;29;20222;-80
2021/04/20 02:36:18;;;;;;;30.25;25.17;;;5.50;72.30;7.40;100688.00;;;;4918442;29;20669;-80
2021/04/20 02:38:46;;;;;;;27.73;21.10;;;5.60;72.40;7.30;100690.00;;;;4915817;29;20337;-80
2021/04/20 02:41:18;;;;;;;29.50;24.50;;;5.60;72.30;7.50;100689.00;;;;4913928;29;20512;-79
2021/04/20 02:43:46;;;;;;;25.33;19.60;;;5.70;72.30;7.30;100690.00;;;;4915562;29;20250;-80
2021/04/20 02:46:14;;;;;;;30.33;24.60;;;5.60;71.70;7.60;67936.00;;;;4912442;29;20433;-79
2021/04/20 02:48:43;;;;;;;29.63;23.40;;;5.60;71.60;217.30;159909.00;;;;4906816;29;20217;-80
2021/04/20 02:51:13;;;;;;;31.67;25.67;;;5.70;71.60;7.70;67969.00;;;;4913611;29;20461;-81
2021/04/20 02:53:42;;;;;;;30.27;21.80;;;5.80;71.30;7.60;100683.00;;;;4916271;29;20242;-80
2021/04/20 02:56:13;;;;;;;31.40;26.33;;;5.70;71.00;7.80;100689.00;;;;4913159;29;20986;-79
2021/04/20 02:58:41;;;;;;;29.77;20.80;;;5.80;71.40;7.70;100693.00;;;;4906843;29;20662;-80
2021/04/20 03:01:21;;;;;;;32.35;25.65;;;5.80;71.50;52.70;160085.00;;;;4913897;29;20461;-80
2021/04/20 03:03:51;;;;;;;27.37;20.97;;;5.90;71.40;7.90;100673.00;;;;4924993;29;20234;-79
2021/04/20 03:06:20;;;;;;;34.35;27.30;;;5.90;71.40;8.00;100694.00;;;;4940564;29;20461;-80
2021/04/20 03:08:50;;;;;;;27.03;22.20;;;6.00;71.40;7.90;100683.00;;;;4930982;29;20229;-80
2021/04/20 03:11:23;;;;;;;29.35;25.33;;;6.00;71.00;8.00;100690.00;;;;4936958;29;20437;-79
2021/04/20 03:13:51;;;;;;;27.27;20.87;;;6.00;70.50;7.70;100683.00;;;;4920776;29;20222;-80
2021/04/20 03:16:30;;;;;;;33.60;27.40;;;6.00;70.50;7.90;100678.00;;;;4912644;29;20461;-81
2021/04/20 03:18:59;;;;;;;31.40;21.90;;;6.00;70.50;7.90;100679.00;;;;4914264;29;20473;-79
2021/04/20 03:21:28;;;;;;;33.63;25.67;;;6.00;70.70;8.10;100689.00;;;;4912945;29;20476;-80
2021/04/20 03:23:56;;;;;;;27.10;21.57;;;6.20;70.50;8.00;100676.00;;;;4912889;29;20206;-80
2021/04/20 03:26:37;;;;;;;34.85;26.48;;;6.10;69.90;8.20;100683.00;;;;4925190;29;20432;-80
2021/04/20 03:29:10;;;;;;;27.27;20.40;;;6.20;69.90;8.00;100684.00;;;;4935639;29;20186;-78
2021/04/20 03:31:39;;;;;;;28.73;24.10;;;6.30;69.20;8.20;100669.00;;;;4943720;29;20513;-79
2021/04/20 03:34:16;;;;;;;29.70;21.27;;;6.30;69.50;8.10;100678.00;;;;4930557;29;20503;-80
2021/04/20 03:36:50;;;;;;;34.67;27.52;;;6.30;68.80;8.30;100690.00;;;;4925389;29;20516;-81
2021/04/20 03:39:22;;;;;;;28.00;21.17;;;6.30;68.70;217.30;160160.00;;;;4915252;29;20198;-81
2021/04/20 03:41:57;;;;;;;32.45;27.25;;;6.30;68.90;8.30;100678.00;;;;4923068;29;20425;-80
2021/04/20 03:44:31;;;;;;;34.10;23.60;;;6.40;69.10;8.10;100677.00;;;;4919392;29;20221;-81
2021/04/20 03:47:03;;;;;;;34.88;27.90;;;6.30;69.30;8.30;100676.00;;;;4938774;29;20433;-80
2021/04/20 03:49:37;;;;;;;32.13;23.57;;;6.40;69.50;8.20;100688.00;;;;4930676;29;20906;-79
2021/04/20 03:52:14;;;;;;;35.78;27.48;;;6.40;69.50;8.40;100684.00;;;;4920764;29;20437;-81
2021/04/20 03:54:44;;;;;;;33.50;25.00;;;6.50;71.20;8.30;100690.00;;;;4920323;29;20233;-81
2021/04/20 03:57:12;;;;;;;35.78;28.73;;;6.50;71.90;8.50;100686.00;;;;4913905;29;21444;-81
2021/04/20 03:59:45;;;;;;;29.17;23.27;;;6.70;72.00;217.30;160335.00;;;;4917581;29;20206;-80
2021/04/20 04:02:14;;;;;;;36.72;29.00;;;6.70;71.80;8.60;100683.00;;;;4928242;29;20513;-80
2021/04/20 04:04:44;;;;;;;35.30;24.07;;;6.80;71.60;8.50;68135.00;;;;4929974;29;21310;-81
2021/04/20 04:07:17;;;;;;;38.03;29.40;;;6.70;70.80;8.60;100691.00;;;;4911941;29;20487;-80
2021/04/20 04:09:46;;;;;;;37.90;25.20;;;6.70;70.80;8.40;100687.00;;;;4921685;29;20664;-80
2021/04/20 04:12:17;;;;;;;43.60;30.13;;;6.60;70.60;8.60;100689.00;;;;4919568;29;20469;-80
2021/04/20 04:14:47;;;;;;;39.53;26.37;;;6.60;71.40;8.40;100694.00;;;;4930068;29;21195;-79
2021/04/20 04:17:17;;;;;;;39.85;29.75;;;6.60;71.40;8.60;100679.00;;;;4911783;29;20520;-80
2021/04/20 04:19:47;;;;;;;37.27;25.17;;;6.70;71.10;8.50;100689.00;;;;4906527;29;20206;-80
2021/04/20 04:22:20;;;;;;;42.60;30.70;;;6.50;71.30;8.70;100695.00;;;;4925221;29;20425;-78
2021/04/20 04:24:52;;;;;;;39.17;26.87;;;6.80;72.50;8.70;100694.00;;;;4931347;29;20227;-79
2021/04/20 04:27:24;;;;;;;46.50;32.80;;;6.90;73.30;8.90;100683.00;;;;4923420;29;20553;-80
2021/04/20 04:29:55;;;;;;;45.03;27.70;;;7.00;73.90;8.80;68207.00;;;;4925755;29;20512;-81
2021/04/20 04:32:24;;;;;;;47.50;33.97;;;7.00;74.30;9.00;100681.00;;;;4914176;29;21333;-80
2021/04/20 04:34:52;;;;;;;37.90;27.03;;;7.00;74.10;8.90;100677.00;;;;4912843;29;20482;-80
2021/04/20 04:37:22;;;;;;;45.65;32.33;;;7.00;73.70;9.00;100684.00;;;;4910535;29;20465;-80
2021/04/20 04:39:49;;;;;;;39.27;28.30;;;7.00;74.10;8.90;100694.00;;;;4911385;29;20226;-80
2021/04/20 04:42:17;;;;;;;48.45;33.47;;;6.90;74.40;9.00;100685.00;;;;4919234;29;20842;-80
2021/04/20 04:44:48;;;;;;;47.90;30.20;;;7.00;74.70;8.70;100696.00;;;;4922555;29;20234;-80
2021/04/20 04:47:16;;;;;;;54.50;35.80;;;7.00;74.40;8.80;100692.00;;;;4902944;29;21184;-80
2021/04/20 04:49:46;;;;;;;53.42;36.03;;;7.00;74.30;9.00;100687.00;;;;4926522;29;20425;-80
2021/04/20 04:52:14;;;;;;;46.60;30.97;;;7.10;73.80;8.70;100695.00;;;;4914739;29;20277;-80
2021/04/20 04:54:44;;;;;;;48.63;35.05;;;7.00;73.70;217.30;160513.00;;;;4921069;29;20449;-79
2021/04/20 04:57:14;;;;;;;46.10;28.50;;;7.00;73.60;8.80;68218.00;;;;4927978;29;20205;-80
2021/04/20 04:59:43;;;;;;;50.92;34.58;;;7.00;73.90;9.00;100693.00;;;;4927526;29;20425;-79
2021/04/20 05:02:12;;;;;;;43.00;28.63;;;7.00;73.80;217.30;160490.00;;;;4911393;29;20221;-80
2021/04/20 05:04:40;;;;;;;69.68;36.63;;;7.00;73.90;9.00;100698.00;;;;4925654;29;20504;-81
2021/04/20 05:07:08;;;;;;;63.67;34.80;;;7.10;74.30;8.80;100711.00;;;;4921465;29;20509;-79
2021/04/20 05:09:35;;;;;;;70.20;40.00;;;7.10;74.30;9.10;100694.00;;;;4940236;29;20452;-80
2021/04/20 05:12:06;;;;;;;81.32;43.90;;;7.10;74.20;9.20;100689.00;;;;4927970;29;20437;-78
2021/04/20 05:14:33;;;;;;;71.33;34.23;;;7.30;73.80;9.00;100688.00;;;;4928063;29;20236;-79
2021/04/20 05:17:01;;;;;;;94.55;39.85;;;7.20;73.40;9.20;100696.00;;;;4919397;29;20536;-80
2021/04/20 05:19:32;;;;;;;77.53;32.10;;;7.20;73.30;9.10;68262.00;;;;4916115;29;20220;-80
2021/04/20 05:22:03;;;;;;;74.97;39.45;;;7.20;73.50;9.30;100699.00;;;;4936698;29;20447;-79
2021/04/20 05:24:30;;;;;;;55.13;33.43;;;7.30;73.60;9.30;100716.00;;;;4926300;29;20244;-80
2021/04/20 05:26:58;;;;;;;62.87;37.27;;;7.30;73.50;217.30;160817.00;;;;4914755;29;20911;-81
2021/04/20 05:29:26;;;;;;;62.40;30.00;;;7.40;72.80;9.60;100707.00;;;;4914557;29;20493;-80
2021/04/20 05:31:54;;;;;;;52.92;35.28;;;7.40;72.60;9.80;100690.00;;;;4914806;29;20433;-80
2021/04/20 05:34:22;;;;;;;48.03;29.13;;;7.50;72.90;9.80;100695.00;;;;4907245;29;20247;-80
2021/04/20 05:36:50;;;;;;;93.28;34.75;;;7.60;72.90;9.90;68451.00;;;;4917460;29;20472;-79
2021/04/20 05:39:18;;;;;;;94.63;28.00;;;7.60;72.40;9.50;100697.00;;;;4926029;29;20692;-80
2021/04/20 05:41:46;;;;;;;141.55;36.05;;;7.50;72.90;9.50;100692.00;;;;4919186;29;20479;-80
2021/04/20 05:44:15;;;;;;;122.23;27.53;;;7.50;73.20;9.30;68318.00;;;;4924181;29;20238;-80
2021/04/20 05:46:47;;;;;;;305.10;49.10;;;7.40;73.40;9.70;100702.00;;;;4924464;29;20477;-80
2021/04/20 05:49:17;;;;;;;93.73;32.33;;;7.50;73.00;217.30;160902.00;;;;4916242;29;20301;-80
2021/04/20 05:51:45;;;;;;;75.05;35.55;;;7.50;72.70;10.10;68495.00;;;;4929062;29;20434;-80
2021/04/20 05:54:13;;;;;;;68.97;28.77;;;7.80;73.00;10.10;100701.00;;;;4910352;29;20234;-81
2021/04/20 05:56:41;;;;;;;135.98;37.28;;;7.80;71.00;10.30;100702.00;;;;4929501;29;21563;-79
2021/04/20 05:59:09;;;;;;;125.07;29.60;;;7.90;70.40;10.20;100706.00;;;;4929433;29;20218;-81
2021/04/20 06:01:41;;;;;;;97.10;34.05;;;7.90;70.20;10.40;100703.00;;;;4915691;29;20435;-78
2021/04/20 06:04:11;;;;;;;50.60;27.20;;;8.10;69.10;10.50;100707.00;;;;4925191;29;20260;-80
2021/04/20 06:06:41;;;;;;;41.20;28.05;;;8.20;68.60;217.30;161333.00;;;;4908780;29;20429;-80
2021/04/20 06:09:10;;;;;;;35.03;22.70;;;8.30;67.30;10.80;100703.00;;;;4931672;29;20218;-81
2021/04/20 06:11:40;;;;;;;32.00;25.20;;;8.20;66.70;10.90;100702.00;;;;4915038;29;20440;-81
2021/04/20 06:14:08;;;;;;;30.33;21.83;;;8.30;67.20;10.90;100701.00;;;;4915871;29;20238;-81
2021/04/20 06:16:36;;;;;;;32.73;25.30;;;8.40;67.20;52.70;161493.00;;;;4914151;29;20472;-79
2021/04/20 06:19:06;;;;;;;30.27;24.75;;;8.70;66.30;11.30;100706.00;;;;4913616;29;20447;-80
2021/04/20 06:21:35;;;;;;;36.33;21.87;;;9.00;63.80;11.20;68745.00;;;;4915235;29;20214;-81
2021/04/20 06:24:15;;;;;;;37.42;25.92;;;8.90;63.70;11.40;100701.00;;;;4916744;29;20492;-79
2021/04/20 06:26:42;;;;;;;32.47;23.00;;;8.90;62.90;11.50;100709.00;;;;4936411;29;20751;-81
2021/04/20 06:29:11;;;;;;;34.97;22.37;;;8.80;63.60;11.40;100712.00;;;;4917441;29;20474;-82
2021/04/20 06:31:39;;;;;;;40.92;26.83;;;8.90;64.60;11.60;100702.00;;;;4914021;29;20456;-81
2021/04/20 06:34:08;;;;;;;42.83;25.17;;;9.00;63.90;52.70;161696.00;;;;4917993;29;20261;-81
2021/04/20 06:36:38;;;;;;;38.38;26.92;;;9.10;63.50;11.90;100707.00;;;;4929884;29;20429;-81
2021/04/20 06:39:07;;;;;;;36.97;23.73;;;9.30;61.90;11.60;100696.00;;;;4925149;29;20237;-81
2021/04/20 06:41:37;;;;;;;36.00;28.70;;;9.20;61.50;11.80;100708.00;;;;4915163;29;20430;-80
2021/04/20 06:44:10;;;;;;;36.40;25.40;;;9.20;60.80;11.70;100702.00;;;;4925025;29;20229;-79
2021/04/20 06:46:42;;;;;;;38.17;28.70;;;9.40;60.20;12.00;100714.00;;;;4929649;29;20461;-80
2021/04/20 06:49:17;;;;;;;36.77;26.27;;;9.50;60.30;12.00;100714.00;;;;4923723;29;20225;-81
2021/04/20 06:51:51;;;;;;;36.40;28.13;;;9.60;59.30;12.00;100713.00;;;;4905793;29;20444;-79
2021/04/20 06:54:25;;;;;;;34.07;25.50;;;9.70;57.70;11.90;100723.00;;;;4923073;29;20206;-78
2021/04/20 06:57:02;;;;;;;37.25;28.10;;;9.60;58.30;12.40;100709.00;;;;4923493;29;20469;-78
2021/04/20 06:59:38;;;;;;;30.90;23.73;;;9.90;56.20;12.00;100712.00;;;;4920088;29;20216;-79
2021/04/20 07:02:17;;;;;;;37.38;29.80;;;9.80;55.50;12.00;100707.00;;;;4933692;29;20468;-79
2021/04/20 07:04:50;;;;;;;36.03;26.40;;;9.80;55.50;11.80;100707.00;;;;4924857;29;20232;-79
2021/04/20 07:07:40;;;;;;;37.88;30.73;;;9.50;56.10;11.70;100712.00;;;;4917851;29;20443;-80
2021/04/20 07:10:15;;;;;;;35.63;27.00;;;9.40;58.00;11.30;100705.00;;;;4926761;29;20462;-80
2021/04/20 07:12:48;;;;;;;38.57;27.33;;;9.20;59.70;11.30;100707.00;;;;4943315;29;20541;-79
2021/04/20 07:15:20;;;;;;;39.30;25.80;;;9.10;61.00;11.20;100711.00;;;;4929564;29;20545;-79
2021/04/20 07:18:31;;;;;;;34.27;24.70;;;9.10;61.40;11.30;100705.00;;;;4924492;29;20473;-79
2021/04/20 07:21:19;;;;;;;32.33;22.10;;;9.20;62.30;11.20;100699.00;;;;4886438;29;20549;-79
2021/04/20 07:24:25;;;;;;;32.90;27.13;;;9.30;60.10;11.60;100703.00;;;;4916753;29;20449;-79
2021/04/20 07:27:24;;;;;;;31.93;24.27;;;9.60;58.20;11.70;68842.00;;;;4926409;29;20206;-80
2021/04/20 07:30:09;;;;;;;29.27;26.07;;;9.60;57.00;11.80;68884.00;;;;4923034;29;20523;-79
2021/04/20 07:33:11;;;;;;;26.97;21.90;;;9.80;54.60;11.70;68873.00;;;;4921622;29;20458;-80
2021/04/20 07:35:48;;;;;;;28.60;25.30;;;9.90;54.10;11.90;68894.00;;;;4932018;29;20432;-78
2021/04/20 07:38:25;;;;;;;28.27;23.33;;;10.00;51.20;11.40;68864.00;;;;4934669;29;20476;-78
2021/04/20 07:41:09;;;;;;;29.85;25.75;;;10.00;50.90;217.30;161878.00;;;;4933590;29;20457;-79
2021/04/20 07:43:57;;;;;;;28.17;22.60;;;10.20;50.50;12.00;68930.00;;;;4926973;29;20199;-79
2021/04/20 07:46:32;;;;;;;29.45;26.25;;;10.30;50.30;12.20;68962.00;;;;4914051;29;20452;-78
2021/04/20 07:49:07;;;;;;;29.13;23.83;;;10.50;48.90;217.30;161991.00;;;;4927008;29;20202;-79
2021/04/20 07:51:49;;;;;;;30.47;26.13;;;10.60;51.80;12.40;100689.00;;;;4924462;29;20503;-79
2021/04/20 07:54:32;;;;;;;26.40;23.53;;;10.90;47.40;12.30;68988.00;;;;4923564;29;20490;-79
2021/04/20 07:57:12;;;;;;;28.23;25.20;;;10.90;46.50;12.50;100681.00;;;;4930004;29;20465;-78
2021/04/20 07:59:54;;;;;;;28.07;24.97;;;11.00;45.30;12.30;100677.00;;;;4931029;29;20454;-79
2021/04/20 08:02:36;;;;;;;31.73;26.40;;;10.90;45.10;12.60;100691.00;;;;4923320;29;20460;-80
2021/04/20 08:05:14;;;;;;;28.83;23.60;;;11.00;42.90;12.50;100666.00;;;;4934379;29;20213;-80
2021/04/20 08:07:50;;;;;;;29.80;26.50;;;11.00;43.20;12.70;100671.00;;;;4929036;29;20444;-82
2021/04/20 08:10:19;;;;;;;31.55;26.80;;;11.10;42.80;13.00;100676.00;;;;4923982;29;20429;-82
2021/04/20 08:12:56;;;;;;;31.80;28.17;;;11.40;41.50;13.10;100678.00;;;;4936542;29;20429;-80
2021/04/20 08:15:34;;;;;;;31.63;24.30;;;11.50;40.10;12.80;100633.00;;;;4919396;29;20249;-81
2021/04/20 08:18:07;;;;;;;29.52;26.42;;;11.50;39.70;13.00;100686.00;;;;4910836;29;20799;-81
2021/04/20 08:20:38;;;;;;;30.60;27.40;;;11.50;39.20;13.10;69180.00;;;;4924220;29;20441;-85
2021/04/20 08:23:08;;;;;;;30.17;26.90;;;11.60;38.40;13.30;69205.00;;;;4916076;29;20433;-84
2021/04/20 08:25:42;;;;;;;30.65;27.30;;;11.70;36.30;13.30;100681.00;;;;4923049;29;20848;-81
2021/04/20 08:28:42;;;;;;;30.60;27.30;;;11.80;37.10;13.40;69248.00;;;;4904193;29;21316;-80
2021/04/20 08:31:20;;;;;;;29.55;26.17;;;12.00;36.70;13.50;100675.00;;;;4923512;29;20513;-80
2021/04/20 08:33:57;;;;;;;28.40;25.25;;;12.20;33.80;217.30;162566.00;;;;4916174;29;20451;-80
2021/04/20 08:36:37;;;;;;;27.77;24.80;;;12.40;35.50;13.70;100670.00;;;;4917656;29;20425;-83
2021/04/20 08:39:16;;;;;;;28.33;25.33;;;12.50;29.70;13.70;100655.00;;;;4910448;29;20433;-85
2021/04/20 08:41:50;;;;;;;27.63;24.80;;;12.50;30.90;13.80;100673.00;;;;4915677;29;20432;-80
2021/04/20 08:44:28;;;;;;;29.33;26.23;;;12.60;29.80;13.90;100657.00;;;;4918812;29;20432;-81
2021/04/20 08:47:03;;;;;;;28.35;25.45;;;12.60;29.30;14.00;100424.00;;;;4944365;29;20443;-87
2021/04/20 08:49:43;;;;;;;28.13;25.10;;;12.70;29.50;14.10;100658.00;;;;4929707;29;20425;-83
2021/04/20 08:52:27;;;;;;;28.70;25.60;;;12.90;29.40;14.20;69416.00;;;;4927785;29;20421;-87
2021/04/20 08:55:11;;;;;;;26.75;23.95;;;13.00;27.80;14.30;100659.00;;;;4942382;29;20455;-81
2021/04/20 08:58:02;;;;;;;27.33;24.55;;;13.10;26.80;217.30;162898.00;;;;4904260;29;20437;-83
2021/04/20 09:00:43;;;;;;;26.90;24.10;;;13.10;26.00;14.40;100654.00;;;;4914720;29;20452;-81
2021/04/20 09:03:26;;;;;;;25.60;22.90;;;13.20;24.80;14.50;100649.00;;;;4928005;29;20488;-81
2021/04/20 09:05:57;;;;;;;27.73;24.73;;;13.30;25.10;14.60;100647.00;;;;4915584;29;20465;-81
2021/04/20 09:08:34;;;;;;;24.90;22.30;;;13.50;25.30;52.70;163035.00;;;;4920107;29;20457;-85
2021/04/20 09:11:09;;;;;;;26.00;23.40;;;13.60;22.90;14.80;69546.00;;;;4918619;29;20959;-83
2021/04/20 09:13:52;;;;;;;25.25;22.70;;;13.70;22.90;14.90;100654.00;;;;4916128;29;20429;-88
2021/04/20 09:16:26;;;;;;;25.05;22.58;;;13.70;21.00;15.00;100651.00;;;;4932541;29;20441;-85
2021/04/20 09:18:54;;;;;;;27.08;23.80;;;13.80;20.30;15.00;100654.00;;;;4927663;29;20440;-86
2021/04/20 09:21:31;;;;;;;26.40;23.67;;;13.90;20.30;52.70;163229.00;;;;4933542;29;20453;-87
2021/04/20 09:24:11;;;;;;;23.35;21.05;;;14.10;20.40;15.20;100651.00;;;;4934527;29;20452;-81
2021/04/20 09:27:09;;;;;;;27.63;24.83;;;14.30;17.50;15.30;100655.00;;;;4926419;29;20441;-80
2021/04/20 09:29:55;;;;;;;25.20;22.70;;;14.30;17.50;15.30;100648.00;;;;4915873;29;20429;-79
2021/04/20 09:32:34;;;;;;;24.95;22.45;;;14.20;17.80;15.40;100645.00;;;;4925394;29;20433;-82
2021/04/20 09:35:05;;;;;;;26.13;23.43;;;14.30;16.80;15.50;69709.00;;;;4920080;29;20444;-81
2021/04/20 09:37:37;;;;;;;24.85;22.45;;;14.40;17.30;15.60;100637.00;;;;4923391;29;20492;-79
2021/04/20 09:40:10;;;;;;;25.38;22.83;;;14.50;16.90;15.60;100646.00;;;;4922808;29;20907;-79
2021/04/20 09:42:44;;;;;;;28.37;25.37;;;14.60;16.40;15.70;100647.00;;;;4924475;29;20443;-78
2021/04/20 09:45:16;;;;;;;28.07;25.13;;;14.70;15.60;15.70;100642.00;;;;4943492;29;20441;-79
2021/04/20 09:48:16;;;;;;;25.77;23.17;;;14.70;15.70;15.80;100646.00;;;;4948884;29;20920;-78
2021/04/20 09:50:58;;;;;;;24.98;22.58;;;14.90;14.30;15.80;100649.00;;;;4927356;29;20432;-79
2021/04/20 09:53:38;;;;;;;25.70;23.10;;;14.80;14.60;16.00;100645.00;;;;4933337;29;20424;-79
2021/04/20 09:56:18;;;;;;;23.90;21.50;;;15.00;14.00;16.00;100639.00;;;;4916700;29;20519;-79
2021/04/20 09:58:48;;;;;;;23.90;21.50;;;15.10;12.60;16.10;100645.00;;;;4926437;29;20440;-80
2021/04/20 10:01:46;;;;;;;24.10;21.70;;;15.10;12.60;16.20;100629.00;;;;4915708;29;20453;-78
2021/04/20 10:04:34;;;;;;;22.92;20.73;;;15.20;12.20;16.30;100631.00;;;;4908754;29;20432;-82
2021/04/20 10:07:28;;;;;;;23.13;20.83;;;15.40;10.40;16.40;100638.00;;;;4921079;29;20424;-81
2021/04/20 10:10:06;;;;;;;21.53;19.50;;;15.50;10.80;16.60;100649.00;;;;4909320;29;20982;-80
2021/04/20 10:12:49;;;;;;;22.35;20.15;;;15.70;10.00;16.70;69980.00;;;;4923704;29;20429;-80
2021/04/20 10:15:25;;;;;;;23.38;20.10;;;15.80;8.00;16.80;100634.00;;;;4922467;29;20447;-80
2021/04/20 10:18:03;;;;;;;21.80;19.52;;;15.90;8.10;16.80;100629.00;;;;4921126;29;20448;-80
2021/04/20 10:20:43;;;;;;;21.40;19.30;;;16.00;6.60;16.90;100635.00;;;;4934886;29;20457;-80
2021/04/20 10:23:27;;;;;;;21.15;19.08;;;16.00;6.90;17.00;100626.00;;;;4933941;29;20444;-80
2021/04/20 10:26:11;;;;;;;20.83;18.83;;;16.10;6.00;17.10;100636.00;;;;4949862;29;20457;-81
2021/04/20 10:28:46;;;;;;;21.02;19.02;;;16.20;4.10;217.30;164068.00;;;;4924174;29;20887;-81
2021/04/20 10:31:19;;;;;;;20.20;18.30;;;16.10;3.80;17.10;100617.00;;;;4914290;29;20442;-81
2021/04/20 10:33:51;;;;;;;19.90;18.00;;;16.20;3.70;17.20;100494.00;;;;4931242;29;20994;-80
2021/04/20 10:36:22;;;;;;;21.77;19.58;;;16.40;3.90;17.30;100611.00;;;;4940855;29;20478;-80
2021/04/20 10:38:53;;;;;;;19.50;17.60;;;16.60;1.40;17.40;100602.00;;;;4952697;29;20429;-79
2021/04/20 10:41:25;;;;;;;21.02;18.77;;;16.50;1.80;17.50;100616.00;;;;4928812;29;20440;-81
2021/04/20 10:43:54;;;;;;;18.10;16.40;;;16.60;1.40;17.50;100608.00;;;;4912020;29;20436;-82
2021/04/20 10:46:26;;;;;;;17.88;16.17;;;16.80;1.00;17.60;100614.00;;;;4924891;29;20437;-82
2021/04/20 10:48:57;;;;;;;18.48;16.67;;;16.80;1.00;17.60;100602.00;;;;4915669;29;21623;-81
2021/04/20 10:51:35;;;;;;;16.35;14.85;;;16.90;1.00;17.80;100605.00;;;;4912434;29;20508;-81
2021/04/20 10:54:04;;;;;;;17.45;15.75;;;17.00;1.00;17.90;100596.00;;;;4915445;29;20524;-80
2021/04/20 10:56:32;;;;;;;18.55;16.65;;;17.20;1.00;18.10;100594.00;;;;4925404;29;20531;-81
2021/04/20 10:59:08;;;;;;;17.25;15.65;;;17.30;1.00;18.20;100598.00;;;;4907879;29;20459;-80
2021/04/20 11:01:41;;;;;;;16.10;14.40;;;17.40;1.00;18.30;100589.00;;;;4919669;29;20448;-81
2021/04/20 11:04:11;;;;;;;15.13;13.63;;;17.50;1.00;18.40;100593.00;;;;4927059;29;20492;-80